Pagina principale
METAR-TAF:

METAR-TAF

Aeroporti :

Aeroporto di Benin

Benin City, Nigeria

latitudine: 6-19N, longitudine: 5-36E, altezza: 79 m

METAR: mancante

Ora: 04:21 (03:21 UTC)

Previsione

Il bollettino è stato emesso 4 ore e 21 minuti fa, alle 23:00 UTC
Previsione valida dal 24 alle 00 UTC al 25 alle 06 UTC
Vento 2 kt da direzioni variabili
Visibilità: 5000 m
Poco nuvoloso ad un'altezza di 1100 ft
foschia
Temporaneamente
dal 24 alle 05 UTC al 24 alle 09 UTC
Visibilità: 2500 m
Probabilità 30%
dal 24 alle 06 UTC al 24 alle 07 UTC
Visibilità: 1500 m
foschia

TAF: DNBE 232300Z 2400/2506 VRB02KT 5000 HZ FEW011 TEMPO 2405/2409 2500 PROB30 2406/2407 1500 BR

Osservazioni e previsioni meteorologiche di più di 4000 aeroporti (messaggi METAR e TAF).

Le stazioni disponibili sono rappresentate dai dischi gialli e rossi sulla carta.

Puntare il mouse per vedere il nome della stazione.

Clicca sopra per visualizzare le osservazioni e previsioni meteorologiche.

Per cambiare la mappa : fare clic sui pulsanti verdi con una croce nera per ingrandire, il pulsante verde con un trattino per diminuire, o sulla freccia verde per le mappe adiacenti.


METAR-TAF: